AirNav   Bose ProFlight Series 2 Headset
 
 1399 users online  

17NH Pomroy Heliport
Londonderry, New Hampshire, USA

GOING TO LONDONDERRY?


FAA INFORMATION EFFECTIVE 30 JANUARY 2020

Location

FAA Identifier: 17NH
Lat/Long: 42-49-26.0000N 071-21-54.0000W
42-49.433333N 071-21.900000W
42.8238889,-71.3650000
(estimated)
Elevation: 254 ft. / 77 m (estimated)
From city: 2 miles N of LONDONDERRY, NH
Time zone: UTC -5 (UTC -4 during Daylight Saving Time)
Zip code: 03053

Heliport Operations

Heliport use: Private use. Permission required prior to landing
Activation date: 06/2003
Control tower: no
ARTCC: BOSTON CENTER
FSS: BANGOR FLIGHT SERVICE STATION
Attendance: UNATNDD
Segmented circle: no

Heliport Communications

WX AWOS-3PT at ASH (7 nm W): 125.1 (603-578-0473)
WX ASOS at MHT (7 nm NW): 119.55 (603-621-1766)
WX ASOS at LWM (12 nm SE): PHONE 978-687-8017

Nearby radio navigation aids

VOR radial/distance  VOR name  Freq  Var
MHTr191/2.7MANCHESTER VOR/DME114.4015W
LWMr308/12.9LAWRENCE VOR/DME112.5015W
CONr174/25.5CONCORD VOR/DME112.9015W
PSMr252/28.1PEASE VOR/DME116.5016W
BOSr345/32.5BOSTON VOR/DME112.7016W
GDMr075/34.8GARDNER VOR/DME110.6014W

 
NDB name  Hdg/Dist  Freq  Var  ID
FITZY124/7.620915WMJ -- .---
ROLLINS241/33.526016WESG . ... --.

Heliport Services

Runway Information

Helipad H1

Dimensions: 12 x 12 ft. / 4 x 4 m
Surface: wood
WOOD PAD ON TURF.
Traffic pattern: leftleft

Heliport Ownership and Management from official FAA records

Ownership: Privately-owned
Owner: RICHARD POMROY
79 MAMMOTH RD.
LONDONDERRY, NH 03053
Phone 603-434-9473
Manager: RICHARD POMROY
79 MAMMOTH RD.
LONDONDERRY, NH 03053
Phone 603-434-9473

Additional Remarks

FOR CD CTC BOSTON APCH AT 603-594-5551.

Instrument Procedures

There are no published instrument procedures at 17NH.

Some nearby airports with instrument procedures:

KASH - Boire Field Airport (7 nm W)
KMHT - Manchester Airport (7 nm NW)
KLWM - Lawrence Municipal Airport (12 nm SE)
KBED - Laurence G Hanscom Field Airport (22 nm S)
6B6 - Minute Man Air Field (23 nm S)
 
Loc | Ops | Rwys | IFR | FBO | Links
Com | Nav | Svcs | Stats | Notes
Area around 17NH (Pomroy Heliport)
 
Road maps at: MapQuest Bing Google
 
Aerial photo
No photo
 
Sectional chart

 
Airport distance calculator
Flying to Pomroy Heliport? Find the distance to fly.

From to 17NH

Sunrise and sunset
Times for 17-Feb-2020
 Local
(UTC-5)
 Zulu
(UTC)
Morning civil twilight06:1211:12
Sunrise06:4111:41
Sunset17:1822:18
Evening civil twilight17:4722:47

Current date and time
Zulu (UTC)  17-Feb-2020 17:05:45
Local (UTC-5)  17-Feb-2020 12:05:45
 
METAR
KMHT 
7nm NW 
171653Z 32012G17KT 10SM FEW050 04/M11 A3019 RMK AO2 SLP242 T00441111
KASH 
8nm SW 
171656Z 31011G15KT 10SM SCT055 05/M09 A3021 RMK AO2 SLP237 T00501089
KLWM 
12nm SE 
171654Z 31011KT 10SM CLR 04/M07 A3022 RMK AO2 SLP234 T00391072
TAF
KMHT 
7nm NW 
171132Z 1712/1812 VRB03KT P6SM FEW150 FM171400 30005KT P6SM SKC FM171800 31008G15KT P6SM FEW040 FM172300 VRB03KT P6SM FEW150
NOTAMs
Click for the latest NOTAMs
NOTAMs are issued by the DoD/FAA and will open in a separate window not controlled by AirNav.

 

 
 

Would you like to see your business listed on this page?

 If your business provides an interesting product or service to pilots, flight crews, aircraft, or users of the Pomroy Heliport, you should consider listing it here.  To start the listing process, click on the button below
 
Add a business
 

Other Pages about Pomroy Heliport

Update a link
 
Copyright © AirNav, LLC. All rights reserved. Privacy Policy  Contact